Norris Rancho Marino Reserve, California Weather observations

Data are for 10 minute period ending at time listed.
 Day   Time   Solar   Ave.   Ave.  Ave.  Vector  Max.   Baro.   Total    
  of    of     Rad.   Air    Rel.  Wind   Wind   Wind  Press.  Precip.   
Year   Day            Temp.  Hum.  Speed  Dir.   Gust                    
2015   (PST)  Kw/m2    F      %     mph   deg.    mph    mb.     in.     
-------------------------------------------------------------------------
  87    2:50   0.00   51.2    98    3.6   105     8.7   1015.8    0.00 
  87    3:00   0.00   51.6    98    3.8   155     6.1   1015.7    0.00 
  87    3:10   0.00   51.6    98    4.5   154     6.4   1015.6    0.00 
  87    3:20   0.00   51.4    98    5.4   144     7.4   1015.6    0.00 
  87    3:30   0.00   51.3    98    6.8   156     9.1   1015.5    0.00 
  87    3:40   0.00   51.1    98    7.3   150    10.7   1015.5    0.00 
  87    3:50   0.00   50.9    98    6.2   156     8.9   1015.6    0.00 
  87    4:00   0.00   51.0    98    5.8   150     8.3   1015.4    0.00 
  87    4:10   0.00   50.8    98    5.8   122     8.2   1015.4    0.00 
  87    4:20   0.00   50.7    98    4.3   114     7.5   1015.5    0.00 
  87    4:30   0.00   50.8    98    3.5   121     5.6   1015.5    0.00 
  87    4:40   0.00   50.8    98    4.9   154     6.8   1015.4    0.00 
  87    4:50   0.00   50.7    98    4.0   136     6.1   1015.3    0.00 
  87    5:00   0.00   50.4    98    1.7    92     4.6   1015.3    0.00 
  87    5:10   0.00   50.6    98    2.9   157     4.9   1015.4    0.00 
  87    5:20   0.00   50.4    98    0.8   125     2.8   1015.5    0.00 
  87    5:30   0.00   50.5    98    2.0   158     3.9   1015.5    0.00 
  87    5:40   0.00   50.5    98    3.3   162     5.4   1015.3    0.00 
  87    5:50   0.00   50.2    99    2.7   128     4.8   1015.3    0.00 
  87    6:00   0.01   49.2    99    5.4    57     9.9   1015.2    0.00 
  87    6:10   0.01   48.7    99    2.2    83     5.6   1015.2    0.00 
  87    6:20   0.01   48.4    99    2.7   305     5.3   1015.2    0.00 
  87    6:30   0.02   49.6    99    1.7   345     3.1   1015.5    0.00 
  87    6:40   0.04   49.7    99    2.6    23     4.0   1015.5    0.00 
  87    6:50   0.03   49.3    99    1.1   346     3.1   1015.4    0.00 
  87    7:00   0.07   48.9    99    1.1    60     2.1   1015.3    0.00 
  87    7:10   0.13   49.0    99    0.4    17     1.8   1015.4    0.00 
  87    7:20   0.11   49.8    99    2.2   266     4.7   1015.8    0.00 
  87    7:30   0.11   49.8    99    3.9   283     6.7   1016.1    0.00 
  87    7:40   0.10   49.6    99    4.4   284     6.2   1016.2    0.00 
  87    7:50   0.16   49.8    99    2.9   320     5.1   1016.2    0.00 
  87    8:00   0.21   50.1    99    6.7   288     9.6   1016.3    0.00 
  87    8:10   0.29   50.5    99    6.2   289     8.5   1016.3    0.00 
  87    8:20   0.36   51.0    99    6.3   288     8.8   1016.4    0.00 
  87    8:30   0.36   50.8    99    4.3   280     6.9   1016.6    0.00 
  87    8:40   0.42   51.6    99    2.2   246     4.2   1016.7    0.00 
  87    8:50   0.48   51.4    99    2.2   221     3.7   1016.9    0.00 
  87    9:00   0.49   51.2    99    2.9   229     4.7   1017.0    0.00 
  87    9:10   0.54   51.7    99    2.6   214     4.0   1017.0    0.00 
  87    9:20   0.55   51.6    99    3.8   260     6.5   1016.9    0.00 
  87    9:30   0.54   51.5    99    5.5   280     8.0   1017.0    0.00 
  87    9:40   0.55   51.5    99    6.9   282     9.2   1017.0    0.00 
  87    9:50   0.62   51.6    99    7.9   282    10.1   1017.0    0.00 
  87   10:00   0.68   51.7    99    7.4   285    10.8   1017.1    0.00 
  87   10:10   0.71   52.7    99    7.7   283    10.4   1017.0    0.00 
  87   10:20   0.73   52.7    98   10.3   288    13.3   1017.0    0.00 
  87   10:30   0.74   52.6    98   11.5   289    14.3   1017.0    0.00 
  87   10:40   0.77   55.4    98    9.6   305    12.7   1017.0    0.00 
  87   10:50   0.79   56.3    94   10.3   289    13.4   1016.9    0.00 
  87   11:00   0.80   56.1    89   10.7   289    13.3   1016.9    0.00 
  87   11:10   0.82   56.3    88   10.9   287    13.5   1016.8    0.00 
  87   11:20   0.83   57.1    88    9.8   286    12.7   1016.6    0.00 
  87   11:30   0.84   57.5    87    9.4   287    12.1   1016.4    0.00 
  87   11:40   0.85   58.7    84    7.4   287     9.4   1016.3    0.00 
  87   11:50   0.86   60.1    81    7.2   282     8.8   1016.2    0.00 
  87   12:00   0.86   59.1    82    9.2   285    12.1   1016.1    0.00 
  87   12:10   0.86   57.7    86   11.6   287    14.5   1015.9    0.00 
  87   12:20   0.86   57.4    86   13.6   288    16.4   1015.7    0.00 
  87   12:30   0.86   59.3    83   12.2   287    15.1   1015.7    0.00 
  87   12:40   0.86   59.7    80   12.1   288    14.2   1015.5    0.00 
  87   12:50   0.86   59.8    79   12.5   288    15.8   1015.4    0.00 
  87   13:00   0.85   60.5    79   10.9   290    13.5   1015.2    0.00 
  87   13:10   0.84   60.8    78   12.3   289    14.5   1014.9    0.00 
  87   13:20   0.83   60.7    78   12.4   287    14.6   1014.7    0.00 
  87   13:30   0.82   60.9    78   10.6   288    13.7   1014.7    0.00 
  87   13:40   0.81   61.7    76    9.2   286    11.5   1014.5    0.00 
  87   13:50   0.80   61.9    75   10.0   287    13.2   1014.2    0.00 
  87   14:00   0.78   61.1    77   10.1   287    12.3   1014.1    0.00 
  87   14:10   0.76   61.8    75    9.9   290    13.1   1013.8    0.00 
  87   14:20   0.74   62.0    75   10.8   290    14.4   1013.5    0.00 
  87   14:30   0.68   61.5    76   11.4   292    13.7   1013.4    0.00 
  87   14:40   0.70   62.3    74   12.4   293    16.1   1013.3    0.00 
  87   14:50   0.68   62.2    72   14.1   296    18.6   1013.2    0.00 
  87   15:00   0.65   62.8    70   12.5   296    15.8   1013.1    0.00 
  87   15:10   0.62   62.4    72   12.7   295    16.0   1013.0    0.00 
  87   15:20   0.59   62.3    70   15.3   304    20.0   1013.0    0.00 
  87   15:30   0.56   61.6    72   15.4   305    20.3   1013.0    0.00 
  87   15:40   0.53   61.9    72   14.5   304    19.3   1012.9    0.00 
  87   15:50   0.50   62.8    69   15.1   306    19.7   1012.9    0.00 
  87   16:00   0.46   63.2    66   15.8   305    22.1   1012.8    0.00 
  87   16:10   0.42   63.3    66   13.1   304    16.5   1012.7    0.00 
  87   16:20   0.41   63.1    66   12.6   307    16.7   1012.7    0.00 
  87   16:30   0.37   63.8    63   13.3   305    18.0   1012.7    0.00 
  87   16:40   0.29   62.1    69   13.9   299    17.2   1012.7    0.00 
  87   16:50   0.30   60.9    73   12.1   301    15.8   1012.8    0.00 
  87   17:00   0.26   61.2    72   12.2   302    16.4   1012.8    0.00 
  87   17:10   0.22   60.0    74   13.2   305    18.4   1012.9    0.00 
  87   17:20   0.19   59.9    74   11.4   313    15.3   1012.9    0.00 
  87   17:30   0.16   59.7    73   14.1   312    20.1   1013.0    0.00 
  87   17:40   0.13   58.9    75   14.1   310    18.7   1013.1    0.00 
  87   17:50   0.10   58.5    76   12.6   313    17.2   1013.2    0.00 
  87   18:00   0.07   58.3    76   11.0   313    17.8   1013.2    0.00 
  87   18:10   0.04   57.2    79   11.6   313    17.4   1013.2    0.00 
  87   18:20   0.02   56.7    81    9.9   313    14.1   1013.1    0.00 
  87   18:30   0.01   56.5    81    8.2   311    11.0   1013.1    0.00 
  87   18:40   0.00   55.5    84    8.3   303     9.7   1012.9    0.00 
  87   18:50   0.00   54.8    86    9.1   298    10.1   1012.7    0.00 
  87   19:00   0.00   54.2    88    8.9   302    10.5   1012.7    0.00 
  87   19:10   0.00   54.4    89    9.1   302    10.4   1012.6    0.00 
  87   19:20   0.00   54.5    89    9.3   302    11.2   1012.7    0.00 
  87   19:30   0.00   54.3    89    7.3   312     9.9   1012.8    0.00 
  87   19:40   0.00   55.0    89    7.7   129    10.5   1013.2    0.00 
  87   19:50   0.00   55.2    88    7.8   125    11.6   1013.5    0.00 
  87   20:00   0.00   55.0    89    6.4   127     8.8   1013.5    0.00 
  87   20:10   0.00   55.0    89    5.1   122     8.0   1013.6    0.00 
  87   20:20   0.00   55.1    88    4.7   121     7.9   1013.9    0.00 
  87   20:30   0.00   55.4    88    6.1   116     8.2   1014.0    0.00 
  87   20:40   0.00   55.4    88    6.0   119     7.7   1014.1    0.00 
  87   20:50   0.00   55.0    88    6.4   118     8.6   1014.2    0.00 
  87   21:00   0.00   54.7    89    3.4   129     7.5   1014.3    0.00 
  87   21:10   0.00   54.5    89    3.7   108     4.8   1014.5    0.00 
  87   21:20   0.00   54.4    89    4.5   101     5.9   1014.5    0.00 
  87   21:30   0.00   54.6    89    4.5   104     6.5   1014.4    0.00 
  87   21:40   0.00   54.5    89    4.5   107     6.0   1014.5    0.00 
  87   21:50   0.00   54.2    89    3.5   109     5.6   1014.6    0.00 
  87   22:00   0.00   54.0    89    5.1    97     7.7   1014.5    0.00 
  87   22:10   0.00   54.0    89    2.4   105     5.3   1014.6    0.00 
  87   22:20   0.00   53.6    88    3.2    98     5.3   1014.6    0.00 
  87   22:30   0.00   53.6    89    1.8    89     3.4   1014.6    0.00 
  87   22:40   0.00   53.0    89    1.5    84     2.6   1014.7    0.00 
  87   22:50   0.00   52.9    89    1.0   120     2.3   1014.7    0.00 
  87   23:00   0.00   53.1    90    0.5   104     1.5   1014.6    0.00 
  87   23:10   0.00   52.9    89    1.0    99     2.5   1014.8    0.00 
  87   23:20   0.00   52.8    90    1.4    82     2.4   1014.7    0.00 
  87   23:30   0.00   52.3    90    1.8    56     2.8   1014.6    0.00 
  87   23:40   0.00   51.8    90    2.2    48     3.6   1014.5    0.00 
  87   23:50   0.00   51.9    90    1.7    77     3.4   1014.3    0.00 
  88    0:00   0.00   52.1    90    1.1    68     2.6   1014.4    0.00 
  88    0:10   0.00   52.4    90    1.2    63     2.7   1014.2    0.00 
  88    0:20   0.00   52.4    89    1.5     5     2.9   1014.4    0.00 
  88    0:30   0.00   52.5    88    1.6   316     2.8   1014.3    0.00 
  88    0:40   0.00   52.5    88    0.6   354     1.8   1014.3    0.00 
  88    0:50   0.00   52.6    87    2.3   103     3.5   1014.2    0.00 
  88    1:00   0.00   52.4    86    2.4   116     4.2   1014.2    0.00 
  88    1:10   0.00   52.2    87    1.5   271     3.2   1014.3    0.00 
  88    1:20   0.00   52.3    89    2.2   350     3.7   1014.4    0.00 
  88    1:30   0.00   52.2    89    1.7    50     3.8   1014.4    0.00 
  88    1:40   0.00   52.0    89    2.1    27     3.8   1014.3    0.00 
  88    1:50   0.00   51.2    89    2.6    74     5.0   1014.0    0.00 
  88    2:00   0.00   51.8    89    0.8    47     2.6   1014.1    0.00 
  88    2:10   0.00   52.4    88    1.1    56     2.2   1014.2    0.00 
  88    2:20   0.00   52.2    87    1.5    21     3.0   1014.1    0.00 
  88    2:30   0.00   52.4    87    2.6    36     4.3   1013.9    0.00 
  88    2:40   0.00   51.8    86    2.1    31     4.0   1013.8    0.00 

Return to Norris Rancho Marino Reserve graphs page.


Western Regional Climate Center,wrcc@dri.edu